createdAt,value
2023-02-19T00:01:34.412Z,100689.78
2023-02-19T00:04:03.845Z,100678.94
2023-02-19T00:06:33.250Z,100687.59
2023-02-19T00:09:00.474Z,100679.81
2023-02-19T00:11:29.648Z,100683.63
2023-02-19T00:13:57.890Z,100679.50
2023-02-19T00:16:28.022Z,100680.09
2023-02-19T00:18:56.493Z,100679.75
2023-02-19T00:21:23.421Z,100675.94
2023-02-19T00:23:55.476Z,100672.97
2023-02-19T00:26:22.319Z,100675.47
2023-02-19T00:28:50.272Z,100669.16
2023-02-19T00:31:24.223Z,100660.00
2023-02-19T00:33:53.620Z,100660.28
2023-02-19T00:36:20.955Z,100655.66
2023-02-19T00:38:48.159Z,100651.06
2023-02-19T00:41:19.142Z,100651.34
2023-02-19T00:43:59.024Z,100644.81
2023-02-19T00:46:28.862Z,100644.81
2023-02-19T00:48:56.363Z,100647.28
2023-02-19T00:51:25.936Z,100648.66
2023-02-19T00:53:52.423Z,100645.13
2023-02-19T00:56:19.282Z,100642.25
2023-02-19T00:58:45.944Z,100637.34
2023-02-19T01:01:12.721Z,100638.69
2023-02-19T01:03:39.923Z,100635.16
2023-02-19T01:06:08.984Z,100639.56
2023-02-19T01:08:36.509Z,100629.78
2023-02-19T01:11:04.867Z,100630.59
2023-02-19T01:13:32.190Z,100636.28
2023-02-19T01:16:14.567Z,100618.69
2023-02-19T01:18:41.439Z,100618.13
2023-02-19T01:21:11.678Z,100602.66
2023-02-19T01:23:38.534Z,100585.56
2023-02-19T01:26:06.579Z,100591.00
2023-02-19T01:28:33.735Z,100582.84
2023-02-19T01:31:09.204Z,100585.28
2023-02-19T01:33:36.118Z,100581.72
2023-02-19T01:36:07.243Z,100579.56
2023-02-19T01:38:33.767Z,100570.09
2023-02-19T01:41:03.496Z,100576.91
2023-02-19T01:43:32.583Z,100565.53
2023-02-19T01:45:59.524Z,100555.22
2023-02-19T01:48:37.677Z,100550.88
2023-02-19T01:51:11.740Z,100546.53
2023-02-19T01:53:44.968Z,100546.81
2023-02-19T01:56:15.037Z,100531.16
2023-02-19T01:58:41.977Z,100530.91
2023-02-19T02:01:08.934Z,100535.47
2023-02-19T02:03:38.152Z,100525.72
2023-02-19T02:06:18.921Z,100520.31
2023-02-19T02:09:04.544Z,100512.44
2023-02-19T02:11:31.296Z,100497.28
2023-02-19T02:13:58.504Z,100498.38
2023-02-19T02:16:47.069Z,100499.69
2023-02-19T02:19:25.564Z,100491.28
2023-02-19T02:21:56.244Z,100482.63
2023-02-19T02:24:50.670Z,100480.72
2023-02-19T02:27:39.786Z,100478.81
2023-02-19T02:30:25.502Z,100466.06
2023-02-19T02:33:07.530Z,100459.75
2023-02-19T02:35:42.730Z,100459.53
2023-02-19T02:38:11.642Z,100457.94
2023-02-19T02:40:42.110Z,100457.41
2023-02-19T02:43:08.718Z,100460.34
2023-02-19T02:45:35.390Z,100465.03
2023-02-19T02:48:19.792Z,100460.63
2023-02-19T02:51:09.462Z,100460.94
2023-02-19T02:54:11.963Z,100447.13
2023-02-19T02:56:41.529Z,100436.00
2023-02-19T02:59:10.314Z,100435.75
2023-02-19T03:02:01.591Z,100428.16
2023-02-19T03:05:02.852Z,100436.38
2023-02-19T03:07:34.508Z,100425.50
2023-02-19T03:10:05.687Z,100432.88
2023-02-19T03:12:52.597Z,100421.47
2023-02-19T03:15:38.144Z,100421.47
2023-02-19T03:18:28.028Z,100416.56
2023-02-19T03:20:57.889Z,100424.91
2023-02-19T03:23:49.716Z,100421.69
2023-02-19T03:26:18.485Z,100425.81
2023-02-19T03:29:06.248Z,100416.78
2023-02-19T03:31:33.630Z,100414.59
2023-02-19T03:34:05.437Z,100405.66
2023-02-19T03:36:38.086Z,100400.78
2023-02-19T03:39:09.264Z,100403.50
2023-02-19T03:41:42.721Z,100389.94
2023-02-19T03:44:24.114Z,100389.13
2023-02-19T03:46:56.948Z,100391.38
2023-02-19T03:49:29.534Z,100383.72
2023-02-19T03:52:08.118Z,100383.94
2023-02-19T03:54:37.916Z,100379.56
2023-02-19T03:57:19.195Z,100373.63
2023-02-19T03:59:51.717Z,100368.50
2023-02-19T04:02:41.203Z,100366.28
2023-02-19T04:05:16.755Z,100370.34
2023-02-19T04:07:48.898Z,100363.53
2023-02-19T04:10:17.739Z,100366.53
2023-02-19T04:12:50.289Z,100377.38
2023-02-19T04:15:22.094Z,100381.72
2023-02-19T04:18:03.725Z,100368.63
2023-02-19T04:20:34.739Z,100392.75
2023-02-19T04:23:01.235Z,100408.22
2023-02-19T04:25:30.485Z,100418.06
2023-02-19T04:27:58.052Z,100427.44
2023-02-19T04:30:24.781Z,100423.69
2023-02-19T04:32:51.243Z,100424.88
2023-02-19T04:35:17.708Z,100421.09
2023-02-19T04:37:44.142Z,100430.00
2023-02-19T04:40:11.029Z,100437.56
2023-02-19T04:42:37.508Z,100435.06
2023-02-19T04:45:04.268Z,100442.47
2023-02-19T04:47:32.801Z,100426.41
2023-02-19T04:49:59.452Z,100429.19
2023-02-19T04:52:26.009Z,100430.72
2023-02-19T04:54:52.539Z,100429.72
2023-02-19T04:57:19.201Z,100432.13
2023-02-19T04:59:46.708Z,100434.53
2023-02-19T05:02:13.170Z,100446.28
2023-02-19T05:04:39.636Z,100448.09
2023-02-19T05:07:06.125Z,100454.13
2023-02-19T05:09:32.843Z,100442.19
2023-02-19T05:11:59.303Z,100445.97
2023-02-19T05:14:26.138Z,100444.88
2023-02-19T05:16:52.564Z,100445.19
2023-02-19T05:19:18.978Z,100434.84
2023-02-19T05:21:45.536Z,100439.66
2023-02-19T05:24:12.035Z,100443.84
2023-02-19T05:26:38.571Z,100431.63
2023-02-19T05:29:05.051Z,100444.94
2023-02-19T05:31:36.737Z,100437.63
2023-02-19T05:34:03.567Z,100433.00
2023-02-19T05:36:30.508Z,100439.53
2023-02-19T05:38:57.877Z,100441.94
2023-02-19T05:41:27.476Z,100434.91
2023-02-19T05:43:55.156Z,100439.22
2023-02-19T05:46:24.764Z,100434.84
2023-02-19T05:48:52.940Z,100447.00
2023-02-19T05:51:23.043Z,100450.00
2023-02-19T05:53:50.570Z,100450.31
2023-02-19T05:56:39.234Z,100456.03
2023-02-19T05:59:16.997Z,100455.75
2023-02-19T06:01:44.139Z,100471.78
2023-02-19T06:04:11.999Z,100461.75
2023-02-19T06:06:39.188Z,100470.09
2023-02-19T06:09:06.787Z,100480.16
2023-02-19T06:11:33.928Z,100480.97
2023-02-19T06:14:00.861Z,100475.00
2023-02-19T06:16:27.741Z,100481.25
2023-02-19T06:18:54.527Z,100484.44
2023-02-19T06:21:21.269Z,100480.63
2023-02-19T06:23:47.828Z,100479.34
2023-02-19T06:26:23.266Z,100481.53
2023-02-19T06:28:51.747Z,100484.53
2023-02-19T06:31:20.300Z,100489.09
2023-02-19T06:33:47.607Z,100492.91
2023-02-19T06:36:16.775Z,100498.59
2023-02-19T06:38:44.342Z,100509.47
2023-02-19T06:41:12.150Z,100524.03
2023-02-19T06:43:39.076Z,100547.72
2023-02-19T06:46:07.268Z,100564.44
2023-02-19T06:48:34.751Z,100569.47
2023-02-19T06:51:01.538Z,100575.06
2023-02-19T06:53:28.202Z,100589.88
2023-02-19T06:56:00.078Z,100604.78
2023-02-19T06:58:27.351Z,100606.72
2023-02-19T07:00:54.492Z,100621.31
2023-02-19T07:03:22.122Z,100629.97
2023-02-19T07:05:49.734Z,100627.31
2023-02-19T07:08:19.644Z,100643.53
2023-02-19T07:10:54.414Z,100647.06
2023-02-19T07:13:21.264Z,100661.16
2023-02-19T07:15:47.909Z,100670.91
2023-02-19T07:18:14.528Z,100671.44
2023-02-19T07:20:41.088Z,100682.00
2023-02-19T07:23:07.741Z,100683.06
2023-02-19T07:25:37.919Z,100699.56
2023-02-19T07:28:04.695Z,100705.19
2023-02-19T07:30:31.262Z,100707.38
2023-02-19T07:32:57.953Z,100720.00
2023-02-19T07:35:24.761Z,100720.31
2023-02-19T07:37:51.436Z,100738.13
2023-02-19T07:40:18.197Z,100752.44
2023-02-19T07:42:44.796Z,100764.34
2023-02-19T07:45:11.599Z,100750.00
2023-02-19T07:47:39.133Z,100767.25
2023-02-19T07:50:06.191Z,100771.84
2023-02-19T07:52:34.389Z,100783.53
2023-02-19T07:55:01.160Z,100774.31
2023-02-19T07:57:29.184Z,100791.59
2023-02-19T07:59:55.746Z,100792.63
2023-02-19T08:02:42.446Z,100805.00
2023-02-19T08:05:09.076Z,100811.41
2023-02-19T08:07:37.024Z,100824.34
2023-02-19T08:10:23.254Z,100833.00
2023-02-19T08:13:18.428Z,100837.78
2023-02-19T08:15:46.549Z,100855.41
2023-02-19T08:18:14.747Z,100865.59
2023-02-19T08:20:41.213Z,100868.09
2023-02-19T08:23:10.939Z,100875.84
2023-02-19T08:25:38.450Z,100880.97
2023-02-19T08:28:05.689Z,100882.59
2023-02-19T08:30:33.605Z,100895.09
2023-02-19T08:33:02.217Z,100897.00
2023-02-19T08:35:29.085Z,100902.78
2023-02-19T08:37:58.773Z,100919.22
2023-02-19T08:40:26.357Z,100925.13
2023-02-19T08:42:53.009Z,100932.47
2023-02-19T08:45:19.881Z,100940.47
2023-02-19T08:47:46.336Z,100954.63
2023-02-19T08:50:12.804Z,100960.25
2023-02-19T08:52:39.410Z,100967.03
2023-02-19T08:55:06.558Z,100970.44
2023-02-19T08:57:37.613Z,100978.47
2023-02-19T09:00:05.672Z,100992.50
2023-02-19T09:02:32.248Z,100985.09
2023-02-19T09:04:58.680Z,100993.25
2023-02-19T09:07:25.212Z,100992.88
2023-02-19T09:09:51.846Z,101002.75
2023-02-19T09:12:18.761Z,101010.84
2023-02-19T09:14:45.628Z,101028.81
2023-02-19T09:17:12.326Z,101026.22
2023-02-19T09:19:38.787Z,101021.81
2023-02-19T09:22:06.024Z,101028.47
2023-02-19T09:24:32.848Z,101033.75
2023-02-19T09:26:59.800Z,101035.25
2023-02-19T09:29:27.855Z,101047.34
2023-02-19T09:31:59.287Z,101045.19
2023-02-19T09:34:27.972Z,101044.78
2023-02-19T09:36:54.887Z,101041.56
2023-02-19T09:39:21.729Z,101043.34
2023-02-19T09:42:01.288Z,101065.53
2023-02-19T09:44:32.262Z,101065.31
2023-02-19T09:47:00.628Z,101063.50
2023-02-19T09:49:40.653Z,101070.28
2023-02-19T09:52:24.752Z,101076.50
2023-02-19T09:54:57.511Z,101078.19
2023-02-19T09:57:25.966Z,101076.91
2023-02-19T09:59:59.125Z,101081.09
2023-02-19T10:02:26.196Z,101090.84
2023-02-19T10:04:53.599Z,101092.91
2023-02-19T10:07:24.086Z,101096.41
2023-02-19T10:10:14.293Z,101092.91
2023-02-19T10:12:48.305Z,101103.19
2023-02-19T10:15:25.503Z,101107.78
2023-02-19T10:17:52.738Z,101117.84
2023-02-19T10:20:24.583Z,101128.16
2023-02-19T10:22:58.916Z,101136.25
2023-02-19T10:25:25.475Z,101132.75
2023-02-19T10:27:52.028Z,101138.69
2023-02-19T10:30:23.784Z,101135.72
2023-02-19T10:33:01.152Z,101134.91
2023-02-19T10:35:28.116Z,101150.09
2023-02-19T10:37:54.707Z,101142.78
2023-02-19T10:40:27.123Z,101131.94
2023-02-19T10:42:58.913Z,101145.47
2023-02-19T10:45:50.304Z,101150.28
2023-02-19T10:48:35.138Z,101154.13
2023-02-19T10:51:06.017Z,101170.41
2023-02-19T10:53:43.555Z,101176.38
2023-02-19T10:56:26.669Z,101181.81
2023-02-19T10:58:53.184Z,101195.66
2023-02-19T11:01:22.215Z,101205.94
2023-02-19T11:03:50.141Z,101200.50
2023-02-19T11:06:20.596Z,101199.72
2023-02-19T11:09:00.007Z,101200.53
2023-02-19T11:11:34.659Z,101210.78
2023-02-19T11:14:05.564Z,101212.38
2023-02-19T11:16:53.463Z,101210.53
2023-02-19T11:19:42.517Z,101221.38
2023-02-19T11:22:30.775Z,101234.97
2023-02-19T11:25:18.584Z,101233.66
2023-02-19T11:27:55.465Z,101229.53
2023-02-19T11:30:33.303Z,101224.66
2023-02-19T11:33:16.181Z,101229.00
2023-02-19T11:35:44.964Z,101242.03
2023-02-19T11:38:14.306Z,101250.19
2023-02-19T11:40:46.029Z,101254.78
2023-02-19T11:43:46.408Z,101259.66
2023-02-19T11:46:39.177Z,101262.09
2023-02-19T11:49:36.519Z,101252.34
2023-02-19T11:52:41.749Z,101256.09
2023-02-19T11:55:13.704Z,101246.34
2023-02-19T11:57:47.885Z,101250.41
2023-02-19T12:00:49.028Z,101242.00
2023-02-19T12:03:48.859Z,101246.59
2023-02-19T12:06:15.286Z,101239.84
2023-02-19T12:08:53.460Z,101250.94
2023-02-19T12:11:38.256Z,101247.69
2023-02-19T12:14:41.734Z,101261.44
2023-02-19T12:17:29.750Z,101262.28
2023-02-19T12:19:58.720Z,101268.69
2023-02-19T12:22:25.068Z,101255.47
2023-02-19T12:25:16.290Z,101250.06
2023-02-19T12:27:49.123Z,101249.59
2023-02-19T12:30:41.885Z,101248.78
2023-02-19T12:33:54.481Z,101258.56
2023-02-19T12:36:35.903Z,101269.16
2023-02-19T12:39:14.271Z,101264.00
2023-02-19T12:41:51.958Z,101267.25
2023-02-19T12:44:34.708Z,101271.88
2023-02-19T12:47:02.480Z,101265.94
2023-02-19T12:49:36.456Z,101269.69
2023-02-19T12:52:23.781Z,101272.88
2023-02-19T12:54:56.210Z,101279.34
2023-02-19T12:57:29.758Z,101282.28
2023-02-19T13:00:12.688Z,101286.09
2023-02-19T13:03:13.504Z,101289.84
2023-02-19T13:05:49.845Z,101281.19
2023-02-19T13:08:42.100Z,101291.81
2023-02-19T13:11:22.830Z,101282.19
2023-02-19T13:14:06.323Z,101276.13
2023-02-19T13:16:37.184Z,101279.25
2023-02-19T13:19:05.077Z,101286.13
2023-02-19T13:21:55.065Z,101278.66
2023-02-19T13:24:27.575Z,101283.00
2023-02-19T13:27:25.454Z,101286.53
2023-02-19T13:30:26.302Z,101277.09
2023-02-19T13:33:01.987Z,101267.38
2023-02-19T13:35:55.962Z,101281.69
2023-02-19T13:38:23.143Z,101281.91
2023-02-19T13:41:27.648Z,101296.00
2023-02-19T13:43:57.606Z,101295.13
2023-02-19T13:46:25.754Z,101300.03
2023-02-19T13:49:36.488Z,101302.31
2023-02-19T13:52:30.403Z,101313.22
2023-02-19T13:55:34.335Z,101304.56
2023-02-19T13:58:35.862Z,101320.16
2023-02-19T14:01:10.633Z,101326.94
2023-02-19T14:03:37.202Z,101333.03
2023-02-19T14:06:06.412Z,101350.09
2023-02-19T14:08:52.671Z,101350.06
2023-02-19T14:11:41.605Z,101354.72
2023-02-19T14:14:23.427Z,101347.03
2023-02-19T14:17:08.673Z,101346.84
2023-02-19T14:19:41.176Z,101343.75
2023-02-19T14:22:56.928Z,101340.28
2023-02-19T14:25:43.619Z,101349.13
2023-02-19T14:28:10.012Z,101342.09
2023-02-19T14:30:42.539Z,101331.25
2023-02-19T14:33:11.412Z,101327.47
2023-02-19T14:35:44.107Z,101331.56
2023-02-19T14:38:33.640Z,101325.34
2023-02-19T14:41:01.026Z,101330.25
2023-02-19T14:43:28.714Z,101337.56
2023-02-19T14:46:00.288Z,101339.47
2023-02-19T14:48:31.531Z,101338.63
2023-02-19T14:51:04.758Z,101336.75
2023-02-19T14:53:36.214Z,101337.56
2023-02-19T14:56:03.718Z,101330.78
2023-02-19T14:58:34.258Z,101340.28
2023-02-19T15:01:00.741Z,101338.94
2023-02-19T15:03:37.774Z,101342.16
2023-02-19T15:06:12.638Z,101351.59
2023-02-19T15:08:44.222Z,101347.28
2023-02-19T15:11:17.375Z,101341.00
2023-02-19T15:13:49.215Z,101342.88
2023-02-19T15:16:18.447Z,101348.53
2023-02-19T15:18:46.810Z,101357.19
2023-02-19T15:21:43.284Z,101355.00
2023-02-19T15:24:14.258Z,101358.38
2023-02-19T15:26:43.220Z,101357.78
2023-02-19T15:29:11.781Z,101362.13
2023-02-19T15:31:48.329Z,101362.28
2023-02-19T15:34:26.155Z,101355.53
2023-02-19T15:36:59.658Z,101360.81
2023-02-19T15:39:33.197Z,101367.88
2023-02-19T15:42:02.330Z,101374.31
2023-02-19T15:44:31.152Z,101371.34
2023-02-19T15:47:03.011Z,101370.97
2023-02-19T15:49:45.002Z,101363.91
2023-02-19T15:52:19.644Z,101360.06
2023-02-19T15:54:59.479Z,101372.47
2023-02-19T15:57:32.359Z,101381.13
2023-02-19T16:00:29.816Z,101375.91
2023-02-19T16:02:58.060Z,101385.91
2023-02-19T16:05:26.867Z,101374.00
2023-02-19T16:08:20.646Z,101379.34
2023-02-19T16:10:55.901Z,101389.00
2023-02-19T16:13:24.047Z,101394.03
2023-02-19T16:16:17.100Z,101394.25
2023-02-19T16:18:46.634Z,101397.97
2023-02-19T16:21:16.772Z,101398.63
2023-02-19T16:23:45.149Z,101396.09
2023-02-19T16:26:11.882Z,101393.03
2023-02-19T16:28:40.288Z,101393.41
2023-02-19T16:31:12.520Z,101402.25
2023-02-19T16:33:40.539Z,101403.09
2023-02-19T16:36:34.067Z,101408.19
2023-02-19T16:39:03.185Z,101409.41
2023-02-19T16:41:29.806Z,101421.00
2023-02-19T16:43:56.291Z,101437.59
2023-02-19T16:46:23.142Z,101423.78
2023-02-19T16:48:53.312Z,101438.38
2023-02-19T16:51:26.907Z,101433.38
2023-02-19T16:53:53.387Z,101440.59
2023-02-19T16:56:23.010Z,101446.16
2023-02-19T16:58:50.514Z,101443.78
2023-02-19T17:01:18.055Z,101447.72
2023-02-19T17:03:47.042Z,101443.88
2023-02-19T17:06:14.179Z,101448.69
2023-02-19T17:08:44.769Z,101438.88
2023-02-19T17:11:16.621Z,101455.44
2023-02-19T17:13:47.640Z,101459.84
2023-02-19T17:16:19.760Z,101471.13
2023-02-19T17:18:46.431Z,101476.22
2023-02-19T17:21:27.605Z,101475.53
2023-02-19T17:23:54.526Z,101481.78
2023-02-19T17:26:24.100Z,101483.53
2023-02-19T17:28:50.974Z,101483.94
2023-02-19T17:31:18.113Z,101481.81
2023-02-19T17:33:46.787Z,101478.22
2023-02-19T17:36:22.240Z,101492.03
2023-02-19T17:38:48.711Z,101488.22
2023-02-19T17:41:15.615Z,101498.19
2023-02-19T17:43:42.033Z,101495.97
2023-02-19T17:46:14.654Z,101497.16
2023-02-19T17:48:43.660Z,101505.47
2023-02-19T17:51:10.896Z,101510.84
2023-02-19T17:53:37.681Z,101509.00
2023-02-19T17:56:04.566Z,101502.78
2023-02-19T17:58:31.166Z,101506.03
2023-02-19T18:00:58.004Z,101512.25
2023-02-19T18:03:24.496Z,101506.16
2023-02-19T18:05:50.973Z,101506.84
2023-02-19T18:08:19.751Z,101514.84
2023-02-19T18:10:46.269Z,101509.22
2023-02-19T18:13:13.024Z,101504.97
2023-02-19T18:15:39.493Z,101498.31
2023-02-19T18:18:05.965Z,101510.59
2023-02-19T18:20:32.541Z,101506.50
2023-02-19T18:22:59.031Z,101519.00
2023-02-19T18:25:25.707Z,101526.94
2023-02-19T18:27:53.079Z,101520.19
2023-02-19T18:30:22.696Z,101525.44
2023-02-19T18:32:49.743Z,101520.28
2023-02-19T18:35:18.366Z,101525.06
2023-02-19T18:37:45.559Z,101520.97
2023-02-19T18:40:12.778Z,101526.94
2023-02-19T18:42:39.874Z,101532.31
2023-02-19T18:45:07.886Z,101534.09
2023-02-19T18:47:34.426Z,101534.09
2023-02-19T18:50:00.984Z,101529.31
2023-02-19T18:52:30.637Z,101537.38
2023-02-19T18:55:03.675Z,101529.28
2023-02-19T18:57:30.141Z,101538.03
2023-02-19T18:59:56.574Z,101549.75
2023-02-19T19:02:23.321Z,101543.03
2023-02-19T19:04:52.041Z,101533.69
2023-02-19T19:07:20.207Z,101529.59
2023-02-19T19:09:47.356Z,101529.69
2023-02-19T19:12:14.559Z,101523.97
2023-02-19T19:14:41.464Z,101521.75
2023-02-19T19:17:07.986Z,101528.72
2023-02-19T19:19:34.485Z,101532.63
2023-02-19T19:22:00.933Z,101535.63
2023-02-19T19:24:27.474Z,101535.16
2023-02-19T19:26:54.166Z,101533.41
2023-02-19T19:29:22.183Z,101531.75
2023-02-19T19:31:49.211Z,101534.44
2023-02-19T19:34:16.656Z,101541.34
2023-02-19T19:36:43.590Z,101540.69
2023-02-19T19:39:10.098Z,101534.72
2023-02-19T19:41:36.642Z,101532.38
2023-02-19T19:44:05.145Z,101526.19
2023-02-19T19:46:32.898Z,101516.00
2023-02-19T19:48:59.969Z,101522.03
2023-02-19T19:51:34.344Z,101530.34
2023-02-19T19:54:03.098Z,101521.44
2023-02-19T19:56:30.273Z,101524.13
2023-02-19T19:58:56.817Z,101525.41
2023-02-19T20:01:23.671Z,101527.75
2023-02-19T20:03:52.926Z,101520.19
2023-02-19T20:06:30.650Z,101524.03
2023-02-19T20:08:58.033Z,101530.78
2023-02-19T20:11:24.479Z,101532.03
2023-02-19T20:13:51.241Z,101530.22
2023-02-19T20:16:23.915Z,101524.97
2023-02-19T20:18:50.386Z,101529.25
2023-02-19T20:21:16.849Z,101525.78
2023-02-19T20:23:43.330Z,101523.53
2023-02-19T20:26:09.813Z,101529.34
2023-02-19T20:28:36.244Z,101528.47
2023-02-19T20:31:02.988Z,101524.47
2023-02-19T20:33:29.697Z,101521.50
2023-02-19T20:35:57.075Z,101526.28
2023-02-19T20:38:24.057Z,101529.56
2023-02-19T20:40:51.037Z,101539.41
2023-02-19T20:43:18.864Z,101540.88
2023-02-19T20:45:48.330Z,101538.56
2023-02-19T20:48:16.805Z,101543.72
2023-02-19T20:50:43.723Z,101544.47
2023-02-19T20:53:11.003Z,101539.81
2023-02-19T20:55:37.751Z,101535.94
2023-02-19T20:58:04.265Z,101520.34
2023-02-19T21:00:30.740Z,101522.16
2023-02-19T21:02:57.261Z,101528.25
2023-02-19T21:05:23.782Z,101534.25
2023-02-19T21:07:50.246Z,101532.63
2023-02-19T21:10:16.980Z,101537.06
2023-02-19T21:12:43.423Z,101542.91
2023-02-19T21:15:09.897Z,101540.94
2023-02-19T21:17:36.359Z,101540.34
2023-02-19T21:20:02.980Z,101548.06
2023-02-19T21:22:29.381Z,101546.44
2023-02-19T21:24:55.778Z,101551.59
2023-02-19T21:27:22.288Z,101565.41
2023-02-19T21:29:48.854Z,101562.50
2023-02-19T21:32:15.435Z,101570.13
2023-02-19T21:34:42.160Z,101566.88
2023-02-19T21:37:08.650Z,101564.88
2023-02-19T21:39:35.139Z,101558.78
2023-02-19T21:42:02.557Z,101556.56
2023-02-19T21:44:29.093Z,101558.34
2023-02-19T21:46:55.961Z,101556.56
2023-02-19T21:49:22.635Z,101559.78
2023-02-19T21:51:50.175Z,101557.91
2023-02-19T21:54:21.029Z,101549.09
2023-02-19T21:56:52.146Z,101544.44
2023-02-19T21:59:20.822Z,101531.09
2023-02-19T22:01:47.824Z,101528.38
2023-02-19T22:04:18.338Z,101535.31
2023-02-19T22:06:45.209Z,101536.38
2023-02-19T22:09:13.037Z,101539.41
2023-02-19T22:11:40.255Z,101538.03
2023-02-19T22:14:07.036Z,101535.56
2023-02-19T22:16:33.577Z,101533.44
2023-02-19T22:19:00.592Z,101536.47
2023-02-19T22:21:32.442Z,101528.63
2023-02-19T22:24:00.222Z,101520.69
2023-02-19T22:26:36.403Z,101506.41
2023-02-19T22:29:06.888Z,101513.19
2023-02-19T22:31:34.076Z,101512.97
2023-02-19T22:34:00.676Z,101506.53
2023-02-19T22:36:30.809Z,101504.66
2023-02-19T22:38:57.442Z,101497.41
2023-02-19T22:41:23.910Z,101507.34
2023-02-19T22:43:50.588Z,101506.75
2023-02-19T22:46:20.021Z,101511.56
2023-02-19T22:48:46.525Z,101521.63
2023-02-19T22:51:15.575Z,101514.38
2023-02-19T22:53:53.569Z,101516.94
2023-02-19T22:56:22.430Z,101522.09
2023-02-19T22:58:49.458Z,101520.81
2023-02-19T23:01:16.754Z,101508.03
2023-02-19T23:03:53.394Z,101522.53
2023-02-19T23:06:29.333Z,101521.03
2023-02-19T23:08:58.142Z,101527.09
2023-02-19T23:11:27.754Z,101524.91
2023-02-19T23:13:54.538Z,101523.59
2023-02-19T23:16:21.400Z,101527.09
2023-02-19T23:18:48.811Z,101522.69
2023-02-19T23:21:16.098Z,101519.41
2023-02-19T23:23:43.217Z,101514.25
2023-02-19T23:26:10.943Z,101518.44
2023-02-19T23:28:39.649Z,101510.84
2023-02-19T23:31:06.657Z,101511.88
2023-02-19T23:33:33.318Z,101506.38
2023-02-19T23:35:59.764Z,101500.84
2023-02-19T23:38:26.176Z,101503.09
2023-02-19T23:40:52.648Z,101496.63
2023-02-19T23:43:19.504Z,101492.91
2023-02-19T23:45:46.180Z,101483.69
2023-02-19T23:48:12.786Z,101490.81
2023-02-19T23:50:39.226Z,101478.28
2023-02-19T23:53:05.813Z,101477.09
2023-02-19T23:55:32.250Z,101469.00
2023-02-19T23:57:58.836Z,101468.63
